sensor_id;sensor_type;location;lat;lon;timestamp;P1;durP1;ratioP1;P2;durP2;ratioP2
24761;SDS011;12865;51.934;10.330;2022-12-29T00:01:41;3.25;;;2.45;;
24761;SDS011;12865;51.934;10.330;2022-12-29T00:04:07;3.10;;;1.90;;
24761;SDS011;12865;51.934;10.330;2022-12-29T00:06:34;2.28;;;1.70;;
24761;SDS011;12865;51.934;10.330;2022-12-29T00:08:59;2.50;;;1.92;;
24761;SDS011;12865;51.934;10.330;2022-12-29T00:11:25;1.95;;;1.85;;
24761;SDS011;12865;51.934;10.330;2022-12-29T00:13:52;3.00;;;2.00;;
24761;SDS011;12865;51.934;10.330;2022-12-29T00:16:37;2.42;;;1.73;;
24761;SDS011;12865;51.934;10.330;2022-12-29T00:19:04;2.33;;;1.95;;
24761;SDS011;12865;51.934;10.330;2022-12-29T00:21:30;2.70;;;2.00;;
24761;SDS011;12865;51.934;10.330;2022-12-29T00:24:21;2.05;;;1.75;;
24761;SDS011;12865;51.934;10.330;2022-12-29T00:26:47;2.08;;;1.80;;
24761;SDS011;12865;51.934;10.330;2022-12-29T00:29:56;3.58;;;2.22;;
24761;SDS011;12865;51.934;10.330;2022-12-29T00:32:40;2.97;;;2.17;;
24761;SDS011;12865;51.934;10.330;2022-12-29T00:35:32;2.97;;;1.85;;
24761;SDS011;12865;51.934;10.330;2022-12-29T00:38:03;3.33;;;1.90;;
24761;SDS011;12865;51.934;10.330;2022-12-29T00:40:50;2.38;;;1.92;;
24761;SDS011;12865;51.934;10.330;2022-12-29T00:43:34;2.08;;;1.92;;
24761;SDS011;12865;51.934;10.330;2022-12-29T00:46:17;2.53;;;1.85;;
24761;SDS011;12865;51.934;10.330;2022-12-29T00:48:43;1.80;;;1.67;;
24761;SDS011;12865;51.934;10.330;2022-12-29T00:51:27;2.20;;;1.98;;
24761;SDS011;12865;51.934;10.330;2022-12-29T00:53:52;1.70;;;1.60;;
24761;SDS011;12865;51.934;10.330;2022-12-29T00:56:17;3.22;;;2.20;;
24761;SDS011;12865;51.934;10.330;2022-12-29T00:58:43;2.10;;;1.90;;
24761;SDS011;12865;51.934;10.330;2022-12-29T01:01:08;2.33;;;2.10;;
24761;SDS011;12865;51.934;10.330;2022-12-29T01:03:34;1.83;;;1.73;;
24761;SDS011;12865;51.934;10.330;2022-12-29T01:06:01;2.97;;;1.98;;
24761;SDS011;12865;51.934;10.330;2022-12-29T01:08:28;3.30;;;2.22;;
24761;SDS011;12865;51.934;10.330;2022-12-29T01:13:32;3.10;;;2.40;;
24761;SDS011;12865;51.934;10.330;2022-12-29T01:15:58;2.20;;;2.00;;
24761;SDS011;12865;51.934;10.330;2022-12-29T01:18:24;3.03;;;2.25;;
24761;SDS011;12865;51.934;10.330;2022-12-29T01:20:50;3.88;;;2.35;;
24761;SDS011;12865;51.934;10.330;2022-12-29T01:23:16;2.88;;;2.13;;
24761;SDS011;12865;51.934;10.330;2022-12-29T01:25:42;2.45;;;2.25;;
24761;SDS011;12865;51.934;10.330;2022-12-29T01:28:07;3.40;;;2.00;;
24761;SDS011;12865;51.934;10.330;2022-12-29T01:30:33;3.15;;;2.30;;
24761;SDS011;12865;51.934;10.330;2022-12-29T01:33:00;3.35;;;2.30;;
24761;SDS011;12865;51.934;10.330;2022-12-29T01:35:26;2.88;;;2.35;;
24761;SDS011;12865;51.934;10.330;2022-12-29T01:37:51;2.20;;;2.00;;
24761;SDS011;12865;51.934;10.330;2022-12-29T01:40:17;2.40;;;2.03;;
24761;SDS011;12865;51.934;10.330;2022-12-29T01:42:42;4.43;;;2.00;;
24761;SDS011;12865;51.934;10.330;2022-12-29T01:45:08;4.20;;;2.08;;
24761;SDS011;12865;51.934;10.330;2022-12-29T01:47:36;3.90;;;2.05;;
24761;SDS011;12865;51.934;10.330;2022-12-29T01:50:08;3.28;;;2.20;;
24761;SDS011;12865;51.934;10.330;2022-12-29T01:52:43;2.42;;;1.83;;
24761;SDS011;12865;51.934;10.330;2022-12-29T01:55:16;2.28;;;2.00;;
24761;SDS011;12865;51.934;10.330;2022-12-29T01:57:43;3.65;;;2.20;;
24761;SDS011;12865;51.934;10.330;2022-12-29T02:00:13;2.03;;;1.92;;
24761;SDS011;12865;51.934;10.330;2022-12-29T02:02:39;3.38;;;2.30;;
24761;SDS011;12865;51.934;10.330;2022-12-29T02:05:10;3.58;;;2.25;;
24761;SDS011;12865;51.934;10.330;2022-12-29T02:07:40;3.25;;;2.30;;
24761;SDS011;12865;51.934;10.330;2022-12-29T02:10:07;1.90;;;1.80;;
24761;SDS011;12865;51.934;10.330;2022-12-29T02:12:33;2.38;;;2.00;;
24761;SDS011;12865;51.934;10.330;2022-12-29T02:14:59;2.72;;;2.47;;
24761;SDS011;12865;51.934;10.330;2022-12-29T02:31:45;2.15;;;1.95;;
24761;SDS011;12865;51.934;10.330;2022-12-29T02:37:17;1.88;;;1.75;;
24761;SDS011;12865;51.934;10.330;2022-12-29T02:39:50;3.60;;;2.17;;
24761;SDS011;12865;51.934;10.330;2022-12-29T02:42:29;3.00;;;1.90;;
24761;SDS011;12865;51.934;10.330;2022-12-29T02:45:20;3.42;;;1.90;;
24761;SDS011;12865;51.934;10.330;2022-12-29T02:48:01;3.40;;;1.98;;
24761;SDS011;12865;51.934;10.330;2022-12-29T02:50:39;1.73;;;1.63;;
24761;SDS011;12865;51.934;10.330;2022-12-29T02:53:14;2.10;;;1.90;;
24761;SDS011;12865;51.934;10.330;2022-12-29T02:55:49;3.47;;;1.77;;
24761;SDS011;12865;51.934;10.330;2022-12-29T02:58:16;2.85;;;1.90;;
24761;SDS011;12865;51.934;10.330;2022-12-29T03:00:48;3.75;;;2.13;;
24761;SDS011;12865;51.934;10.330;2022-12-29T03:03:45;2.63;;;1.80;;
24761;SDS011;12865;51.934;10.330;2022-12-29T03:09:00;1.90;;;1.80;;
24761;SDS011;12865;51.934;10.330;2022-12-29T03:11:33;2.90;;;2.00;;
24761;SDS011;12865;51.934;10.330;2022-12-29T03:14:32;2.75;;;2.00;;
24761;SDS011;12865;51.934;10.330;2022-12-29T03:20:25;2.33;;;1.92;;
24761;SDS011;12865;51.934;10.330;2022-12-29T03:22:56;3.22;;;1.80;;
24761;SDS011;12865;51.934;10.330;2022-12-29T03:25:30;2.33;;;2.00;;
24761;SDS011;12865;51.934;10.330;2022-12-29T03:28:00;1.50;;;1.40;;
24761;SDS011;12865;51.934;10.330;2022-12-29T03:30:29;2.53;;;1.83;;
24761;SDS011;12865;51.934;10.330;2022-12-29T03:35:26;2.85;;;1.98;;
24761;SDS011;12865;51.934;10.330;2022-12-29T03:40:31;2.10;;;1.80;;
24761;SDS011;12865;51.934;10.330;2022-12-29T03:42:59;2.72;;;1.63;;
24761;SDS011;12865;51.934;10.330;2022-12-29T03:45:25;1.88;;;1.70;;
24761;SDS011;12865;51.934;10.330;2022-12-29T03:47:50;1.95;;;1.52;;
24761;SDS011;12865;51.934;10.330;2022-12-29T03:50:18;1.48;;;1.38;;
24761;SDS011;12865;51.934;10.330;2022-12-29T03:52:43;1.45;;;1.35;;
24761;SDS011;12865;51.934;10.330;2022-12-29T03:55:08;1.25;;;1.15;;
24761;SDS011;12865;51.934;10.330;2022-12-29T03:57:34;1.67;;;1.50;;
24761;SDS011;12865;51.934;10.330;2022-12-29T03:59:59;1.60;;;1.48;;
24761;SDS011;12865;51.934;10.330;2022-12-29T04:02:25;1.33;;;1.30;;
24761;SDS011;12865;51.934;10.330;2022-12-29T04:04:50;2.10;;;1.42;;
24761;SDS011;12865;51.934;10.330;2022-12-29T04:07:15;1.30;;;1.30;;
24761;SDS011;12865;51.934;10.330;2022-12-29T04:09:40;1.40;;;1.30;;
24761;SDS011;12865;51.934;10.330;2022-12-29T04:12:06;1.40;;;1.30;;
24761;SDS011;12865;51.934;10.330;2022-12-29T04:14:31;1.20;;;1.17;;
24761;SDS011;12865;51.934;10.330;2022-12-29T04:16:56;2.55;;;1.38;;
24761;SDS011;12865;51.934;10.330;2022-12-29T04:19:22;1.90;;;1.30;;
24761;SDS011;12865;51.934;10.330;2022-12-29T04:21:47;1.00;;;0.95;;
24761;SDS011;12865;51.934;10.330;2022-12-29T04:24:12;1.40;;;1.17;;
24761;SDS011;12865;51.934;10.330;2022-12-29T04:26:38;1.30;;;1.20;;
24761;SDS011;12865;51.934;10.330;2022-12-29T04:29:03;1.30;;;1.20;;
24761;SDS011;12865;51.934;10.330;2022-12-29T04:31:29;2.97;;;1.30;;
24761;SDS011;12865;51.934;10.330;2022-12-29T04:33:54;1.23;;;1.23;;
24761;SDS011;12865;51.934;10.330;2022-12-29T04:36:22;1.27;;;1.17;;
24761;SDS011;12865;51.934;10.330;2022-12-29T04:38:47;1.50;;;1.10;;
24761;SDS011;12865;51.934;10.330;2022-12-29T04:41:12;1.10;;;1.10;;
24761;SDS011;12865;51.934;10.330;2022-12-29T04:43:38;1.35;;;1.10;;
24761;SDS011;12865;51.934;10.330;2022-12-29T04:46:03;2.03;;;1.42;;
24761;SDS011;12865;51.934;10.330;2022-12-29T04:48:28;1.48;;;1.20;;
24761;SDS011;12865;51.934;10.330;2022-12-29T04:50:54;1.10;;;0.95;;
24761;SDS011;12865;51.934;10.330;2022-12-29T04:53:19;1.58;;;1.00;;
24761;SDS011;12865;51.934;10.330;2022-12-29T04:55:48;2.63;;;1.17;;
24761;SDS011;12865;51.934;10.330;2022-12-29T04:58:14;1.42;;;1.10;;
24761;SDS011;12865;51.934;10.330;2022-12-29T05:00:40;1.42;;;1.30;;
24761;SDS011;12865;51.934;10.330;2022-12-29T05:03:05;1.90;;;1.27;;
24761;SDS011;12865;51.934;10.330;2022-12-29T05:05:30;0.93;;;0.90;;
24761;SDS011;12865;51.934;10.330;2022-12-29T05:07:56;1.48;;;1.30;;
24761;SDS011;12865;51.934;10.330;2022-12-29T05:10:21;1.10;;;1.10;;
24761;SDS011;12865;51.934;10.330;2022-12-29T05:12:46;1.00;;;0.80;;
24761;SDS011;12865;51.934;10.330;2022-12-29T05:15:12;1.23;;;1.02;;
24761;SDS011;12865;51.934;10.330;2022-12-29T05:17:38;1.35;;;1.25;;
24761;SDS011;12865;51.934;10.330;2022-12-29T05:20:04;1.65;;;1.02;;
24761;SDS011;12865;51.934;10.330;2022-12-29T05:22:30;1.90;;;1.58;;
24761;SDS011;12865;51.934;10.330;2022-12-29T05:24:56;1.55;;;1.00;;
24761;SDS011;12865;51.934;10.330;2022-12-29T05:27:21;1.20;;;1.20;;
24761;SDS011;12865;51.934;10.330;2022-12-29T05:29:46;0.90;;;0.90;;
24761;SDS011;12865;51.934;10.330;2022-12-29T05:32:12;1.77;;;1.13;;
24761;SDS011;12865;51.934;10.330;2022-12-29T05:34:37;1.10;;;1.00;;
24761;SDS011;12865;51.934;10.330;2022-12-29T05:37:02;2.35;;;1.10;;
24761;SDS011;12865;51.934;10.330;2022-12-29T05:39:28;0.93;;;0.90;;
24761;SDS011;12865;51.934;10.330;2022-12-29T05:41:54;0.77;;;0.77;;
24761;SDS011;12865;51.934;10.330;2022-12-29T05:44:19;0.80;;;0.80;;
24761;SDS011;12865;51.934;10.330;2022-12-29T05:46:44;2.15;;;0.90;;
24761;SDS011;12865;51.934;10.330;2022-12-29T05:49:09;0.88;;;0.80;;
24761;SDS011;12865;51.934;10.330;2022-12-29T05:51:35;1.13;;;0.77;;
24761;SDS011;12865;51.934;10.330;2022-12-29T05:54:00;0.70;;;0.70;;
24761;SDS011;12865;51.934;10.330;2022-12-29T05:56:25;0.70;;;0.70;;
24761;SDS011;12865;51.934;10.330;2022-12-29T05:58:51;1.63;;;1.27;;
24761;SDS011;12865;51.934;10.330;2022-12-29T06:01:16;1.15;;;0.93;;
24761;SDS011;12865;51.934;10.330;2022-12-29T06:03:41;1.63;;;1.00;;
24761;SDS011;12865;51.934;10.330;2022-12-29T06:06:07;2.15;;;0.82;;
24761;SDS011;12865;51.934;10.330;2022-12-29T06:08:32;0.70;;;0.68;;
24761;SDS011;12865;51.934;10.330;2022-12-29T06:10:58;0.77;;;0.77;;
24761;SDS011;12865;51.934;10.330;2022-12-29T06:13:23;0.90;;;0.75;;
24761;SDS011;12865;51.934;10.330;2022-12-29T06:15:49;0.85;;;0.70;;
24761;SDS011;12865;51.934;10.330;2022-12-29T06:18:15;1.35;;;0.73;;
24761;SDS011;12865;51.934;10.330;2022-12-29T06:20:40;0.82;;;0.65;;
24761;SDS011;12865;51.934;10.330;2022-12-29T06:23:06;2.05;;;0.70;;
24761;SDS011;12865;51.934;10.330;2022-12-29T06:25:31;0.98;;;0.65;;
24761;SDS011;12865;51.934;10.330;2022-12-29T06:27:58;0.80;;;0.80;;
24761;SDS011;12865;51.934;10.330;2022-12-29T06:30:24;0.60;;;0.60;;
24761;SDS011;12865;51.934;10.330;2022-12-29T06:32:49;0.70;;;0.70;;
24761;SDS011;12865;51.934;10.330;2022-12-29T06:35:15;2.03;;;0.60;;
24761;SDS011;12865;51.934;10.330;2022-12-29T06:37:40;0.65;;;0.60;;
24761;SDS011;12865;51.934;10.330;2022-12-29T06:40:06;1.17;;;0.73;;
24761;SDS011;12865;51.934;10.330;2022-12-29T06:42:32;1.40;;;0.63;;
24761;SDS011;12865;51.934;10.330;2022-12-29T06:44:57;1.88;;;1.05;;
24761;SDS011;12865;51.934;10.330;2022-12-29T06:47:24;0.70;;;0.70;;
24761;SDS011;12865;51.934;10.330;2022-12-29T06:49:49;0.50;;;0.50;;
24761;SDS011;12865;51.934;10.330;2022-12-29T06:52:14;0.52;;;0.52;;
24761;SDS011;12865;51.934;10.330;2022-12-29T06:54:40;0.68;;;0.68;;
24761;SDS011;12865;51.934;10.330;2022-12-29T06:57:05;0.80;;;0.80;;
24761;SDS011;12865;51.934;10.330;2022-12-29T06:59:31;0.65;;;0.63;;
24761;SDS011;12865;51.934;10.330;2022-12-29T07:01:56;0.60;;;0.60;;
24761;SDS011;12865;51.934;10.330;2022-12-29T07:04:21;0.73;;;0.60;;
24761;SDS011;12865;51.934;10.330;2022-12-29T07:06:47;0.60;;;0.60;;
24761;SDS011;12865;51.934;10.330;2022-12-29T07:09:12;0.50;;;0.50;;
24761;SDS011;12865;51.934;10.330;2022-12-29T07:11:37;0.95;;;0.63;;
24761;SDS011;12865;51.934;10.330;2022-12-29T07:14:03;1.23;;;1.08;;
24761;SDS011;12865;51.934;10.330;2022-12-29T07:16:28;0.75;;;0.75;;
24761;SDS011;12865;51.934;10.330;2022-12-29T07:18:55;0.90;;;0.57;;
24761;SDS011;12865;51.934;10.330;2022-12-29T07:21:21;0.57;;;0.57;;
24761;SDS011;12865;51.934;10.330;2022-12-29T07:23:46;0.73;;;0.73;;
24761;SDS011;12865;51.934;10.330;2022-12-29T07:26:12;0.73;;;0.60;;
24761;SDS011;12865;51.934;10.330;2022-12-29T07:28:40;1.58;;;0.70;;
24761;SDS011;12865;51.934;10.330;2022-12-29T07:31:07;0.70;;;0.70;;
24761;SDS011;12865;51.934;10.330;2022-12-29T07:33:42;0.60;;;0.45;;
24761;SDS011;12865;51.934;10.330;2022-12-29T07:36:08;0.85;;;0.70;;
24761;SDS011;12865;51.934;10.330;2022-12-29T07:38:34;0.50;;;0.50;;
24761;SDS011;12865;51.934;10.330;2022-12-29T07:41:00;0.95;;;0.95;;
24761;SDS011;12865;51.934;10.330;2022-12-29T07:43:25;0.50;;;0.50;;
24761;SDS011;12865;51.934;10.330;2022-12-29T07:45:50;1.05;;;0.63;;
24761;SDS011;12865;51.934;10.330;2022-12-29T07:48:16;0.47;;;0.43;;
24761;SDS011;12865;51.934;10.330;2022-12-29T07:50:41;0.50;;;0.50;;
24761;SDS011;12865;51.934;10.330;2022-12-29T07:53:06;1.02;;;0.60;;
24761;SDS011;12865;51.934;10.330;2022-12-29T07:55:32;1.55;;;0.55;;
24761;SDS011;12865;51.934;10.330;2022-12-29T07:57:57;0.47;;;0.40;;
24761;SDS011;12865;51.934;10.330;2022-12-29T08:00:22;0.55;;;0.55;;
24761;SDS011;12865;51.934;10.330;2022-12-29T08:02:48;0.60;;;0.60;;
24761;SDS011;12865;51.934;10.330;2022-12-29T08:05:14;0.60;;;0.60;;
24761;SDS011;12865;51.934;10.330;2022-12-29T08:07:42;0.50;;;0.50;;
24761;SDS011;12865;51.934;10.330;2022-12-29T08:10:09;0.80;;;0.80;;
24761;SDS011;12865;51.934;10.330;2022-12-29T08:12:35;0.52;;;0.52;;
24761;SDS011;12865;51.934;10.330;2022-12-29T08:15:00;1.05;;;0.73;;
24761;SDS011;12865;51.934;10.330;2022-12-29T08:17:26;0.50;;;0.50;;
24761;SDS011;12865;51.934;10.330;2022-12-29T08:19:51;0.60;;;0.60;;
24761;SDS011;12865;51.934;10.330;2022-12-29T08:22:16;0.90;;;0.80;;
24761;SDS011;12865;51.934;10.330;2022-12-29T08:24:42;1.42;;;0.88;;
24761;SDS011;12865;51.934;10.330;2022-12-29T08:27:07;2.80;;;0.68;;
24761;SDS011;12865;51.934;10.330;2022-12-29T08:29:32;0.70;;;0.70;;
24761;SDS011;12865;51.934;10.330;2022-12-29T08:31:58;1.33;;;0.90;;
24761;SDS011;12865;51.934;10.330;2022-12-29T08:34:23;1.17;;;1.00;;
24761;SDS011;12865;51.934;10.330;2022-12-29T08:36:48;0.80;;;0.80;;
24761;SDS011;12865;51.934;10.330;2022-12-29T08:39:14;0.77;;;0.77;;
24761;SDS011;12865;51.934;10.330;2022-12-29T08:41:39;1.95;;;0.95;;
24761;SDS011;12865;51.934;10.330;2022-12-29T08:44:05;1.38;;;1.02;;
24761;SDS011;12865;51.934;10.330;2022-12-29T08:46:30;1.80;;;1.05;;
24761;SDS011;12865;51.934;10.330;2022-12-29T08:48:56;0.90;;;0.90;;
24761;SDS011;12865;51.934;10.330;2022-12-29T08:51:21;1.85;;;0.77;;
24761;SDS011;12865;51.934;10.330;2022-12-29T08:53:47;1.10;;;0.80;;
24761;SDS011;12865;51.934;10.330;2022-12-29T08:56:12;0.90;;;0.90;;
24761;SDS011;12865;51.934;10.330;2022-12-29T08:58:37;1.73;;;1.10;;
24761;SDS011;12865;51.934;10.330;2022-12-29T09:01:03;0.60;;;0.60;;
24761;SDS011;12865;51.934;10.330;2022-12-29T09:03:29;1.38;;;0.80;;
24761;SDS011;12865;51.934;10.330;2022-12-29T09:05:54;0.98;;;0.75;;
24761;SDS011;12865;51.934;10.330;2022-12-29T09:08:20;1.08;;;0.90;;
24761;SDS011;12865;51.934;10.330;2022-12-29T09:10:47;1.83;;;0.75;;
24761;SDS011;12865;51.934;10.330;2022-12-29T09:13:13;0.90;;;0.70;;
24761;SDS011;12865;51.934;10.330;2022-12-29T09:15:39;0.95;;;0.70;;
24761;SDS011;12865;51.934;10.330;2022-12-29T09:18:05;0.60;;;0.60;;
24761;SDS011;12865;51.934;10.330;2022-12-29T09:20:32;0.77;;;0.77;;
24761;SDS011;12865;51.934;10.330;2022-12-29T09:22:58;0.77;;;0.60;;
24761;SDS011;12865;51.934;10.330;2022-12-29T09:25:23;1.10;;;0.95;;
24761;SDS011;12865;51.934;10.330;2022-12-29T09:27:49;1.30;;;0.70;;
24761;SDS011;12865;51.934;10.330;2022-12-29T09:30:17;0.95;;;0.55;;
24761;SDS011;12865;51.934;10.330;2022-12-29T09:32:43;0.52;;;0.40;;
24761;SDS011;12865;51.934;10.330;2022-12-29T09:35:08;0.47;;;0.43;;
24761;SDS011;12865;51.934;10.330;2022-12-29T09:37:34;0.40;;;0.40;;
24761;SDS011;12865;51.934;10.330;2022-12-29T09:39:59;0.47;;;0.45;;
24761;SDS011;12865;51.934;10.330;2022-12-29T09:42:32;0.57;;;0.57;;
24761;SDS011;12865;51.934;10.330;2022-12-29T09:45:14;0.98;;;0.70;;
24761;SDS011;12865;51.934;10.330;2022-12-29T09:53:00;0.98;;;0.52;;
24761;SDS011;12865;51.934;10.330;2022-12-29T09:55:32;0.70;;;0.40;;
24761;SDS011;12865;51.934;10.330;2022-12-29T09:58:04;1.25;;;0.38;;
24761;SDS011;12865;51.934;10.330;2022-12-29T10:00:38;0.40;;;0.40;;
24761;SDS011;12865;51.934;10.330;2022-12-29T10:03:14;1.38;;;0.40;;
24761;SDS011;12865;51.934;10.330;2022-12-29T10:16:54;1.88;;;0.60;;
24761;SDS011;12865;51.934;10.330;2022-12-29T10:20:07;0.40;;;0.40;;
24761;SDS011;12865;51.934;10.330;2022-12-29T10:25:27;0.60;;;0.40;;
24761;SDS011;12865;51.934;10.330;2022-12-29T10:27:56;1.92;;;0.85;;
24761;SDS011;12865;51.934;10.330;2022-12-29T10:30:32;1.45;;;0.50;;
24761;SDS011;12865;51.934;10.330;2022-12-29T10:33:01;1.08;;;0.40;;
24761;SDS011;12865;51.934;10.330;2022-12-29T10:35:32;0.50;;;0.40;;
24761;SDS011;12865;51.934;10.330;2022-12-29T10:48:22;2.53;;;0.60;;
24761;SDS011;12865;51.934;10.330;2022-12-29T10:50:51;0.57;;;0.50;;
24761;SDS011;12865;51.934;10.330;2022-12-29T10:53:22;2.28;;;0.50;;
24761;SDS011;12865;51.934;10.330;2022-12-29T10:55:51;1.25;;;0.65;;
24761;SDS011;12865;51.934;10.330;2022-12-29T10:58:16;0.70;;;0.70;;
24761;SDS011;12865;51.934;10.330;2022-12-29T11:00:43;1.17;;;0.50;;
24761;SDS011;12865;51.934;10.330;2022-12-29T11:05:57;1.80;;;0.50;;
24761;SDS011;12865;51.934;10.330;2022-12-29T11:08:31;2.70;;;0.60;;
24761;SDS011;12865;51.934;10.330;2022-12-29T11:11:04;0.43;;;0.43;;
24761;SDS011;12865;51.934;10.330;2022-12-29T11:13:46;2.50;;;0.65;;
24761;SDS011;12865;51.934;10.330;2022-12-29T11:16:13;2.63;;;0.60;;
24761;SDS011;12865;51.934;10.330;2022-12-29T11:18:39;0.98;;;0.50;;
24761;SDS011;12865;51.934;10.330;2022-12-29T11:21:09;2.17;;;0.50;;
24761;SDS011;12865;51.934;10.330;2022-12-29T11:23:55;0.77;;;0.60;;
24761;SDS011;12865;51.934;10.330;2022-12-29T11:26:23;1.65;;;0.50;;
24761;SDS011;12865;51.934;10.330;2022-12-29T11:31:43;1.05;;;0.60;;
24761;SDS011;12865;51.934;10.330;2022-12-29T11:34:26;3.70;;;0.80;;
24761;SDS011;12865;51.934;10.330;2022-12-29T11:36:58;0.57;;;0.57;;
24761;SDS011;12865;51.934;10.330;2022-12-29T11:39:32;0.77;;;0.77;;
24761;SDS011;12865;51.934;10.330;2022-12-29T11:42:12;0.57;;;0.47;;
24761;SDS011;12865;51.934;10.330;2022-12-29T11:44:42;1.60;;;0.80;;
24761;SDS011;12865;51.934;10.330;2022-12-29T11:49:37;1.48;;;0.75;;
24761;SDS011;12865;51.934;10.330;2022-12-29T11:52:03;2.30;;;0.60;;
24761;SDS011;12865;51.934;10.330;2022-12-29T11:54:29;0.85;;;0.60;;
24761;SDS011;12865;51.934;10.330;2022-12-29T11:56:58;1.58;;;0.80;;
24761;SDS011;12865;51.934;10.330;2022-12-29T11:59:37;2.45;;;0.90;;
24761;SDS011;12865;51.934;10.330;2022-12-29T12:02:12;2.88;;;0.80;;
24761;SDS011;12865;51.934;10.330;2022-12-29T12:04:51;1.77;;;0.60;;
24761;SDS011;12865;51.934;10.330;2022-12-29T12:08:09;0.68;;;0.60;;
24761;SDS011;12865;51.934;10.330;2022-12-29T12:10:32;1.23;;;0.65;;
24761;SDS011;12865;51.934;10.330;2022-12-29T12:15:57;0.63;;;0.55;;
24761;SDS011;12865;51.934;10.330;2022-12-29T12:18:40;0.90;;;0.68;;
24761;SDS011;12865;51.934;10.330;2022-12-29T12:27:08;1.20;;;0.60;;
24761;SDS011;12865;51.934;10.330;2022-12-29T12:38:39;3.20;;;0.70;;
24761;SDS011;12865;51.934;10.330;2022-12-29T12:41:11;1.02;;;0.73;;
24761;SDS011;12865;51.934;10.330;2022-12-29T12:43:49;1.00;;;0.70;;
24761;SDS011;12865;51.934;10.330;2022-12-29T12:57:17;2.17;;;1.00;;
24761;SDS011;12865;51.934;10.330;2022-12-29T13:10:32;2.67;;;1.00;;
24761;SDS011;12865;51.934;10.330;2022-12-29T13:19:04;1.52;;;0.70;;
24761;SDS011;12865;51.934;10.330;2022-12-29T13:21:56;2.83;;;0.93;;
24761;SDS011;12865;51.934;10.330;2022-12-29T13:26:53;5.72;;;3.90;;
24761;SDS011;12865;51.934;10.330;2022-12-29T13:38:11;3.22;;;0.80;;
24761;SDS011;12865;51.934;10.330;2022-12-29T13:40:44;2.85;;;0.80;;
24761;SDS011;12865;51.934;10.330;2022-12-29T13:43:14;2.65;;;0.82;;
24761;SDS011;12865;51.934;10.330;2022-12-29T13:45:41;2.38;;;1.20;;
24761;SDS011;12865;51.934;10.330;2022-12-29T13:48:22;3.72;;;1.40;;
24761;SDS011;12865;51.934;10.330;2022-12-29T13:50:55;3.97;;;0.80;;
24761;SDS011;12865;51.934;10.330;2022-12-29T13:53:33;0.90;;;0.60;;
24761;SDS011;12865;51.934;10.330;2022-12-29T13:56:05;1.45;;;0.93;;
24761;SDS011;12865;51.934;10.330;2022-12-29T13:58:41;7.40;;;4.30;;
24761;SDS011;12865;51.934;10.330;2022-12-29T14:03:50;3.08;;;1.50;;
24761;SDS011;12865;51.934;10.330;2022-12-29T14:06:22;2.20;;;1.00;;
24761;SDS011;12865;51.934;10.330;2022-12-29T14:08:50;4.05;;;1.15;;
24761;SDS011;12865;51.934;10.330;2022-12-29T14:11:20;3.03;;;0.90;;
24761;SDS011;12865;51.934;10.330;2022-12-29T14:13:49;2.88;;;0.93;;
24761;SDS011;12865;51.934;10.330;2022-12-29T14:16:31;3.20;;;0.80;;
24761;SDS011;12865;51.934;10.330;2022-12-29T14:22:02;7.47;;;1.17;;
24761;SDS011;12865;51.934;10.330;2022-12-29T14:27:00;4.28;;;1.25;;
24761;SDS011;12865;51.934;10.330;2022-12-29T14:29:47;3.97;;;1.00;;
24761;SDS011;12865;51.934;10.330;2022-12-29T14:34:46;5.47;;;1.02;;
24761;SDS011;12865;51.934;10.330;2022-12-29T14:37:23;3.08;;;1.23;;
24761;SDS011;12865;51.934;10.330;2022-12-29T14:39:49;3.58;;;1.10;;
24761;SDS011;12865;51.934;10.330;2022-12-29T14:42:42;3.67;;;1.10;;
24761;SDS011;12865;51.934;10.330;2022-12-29T14:47:41;3.67;;;1.33;;
24761;SDS011;12865;51.934;10.330;2022-12-29T14:53:06;2.85;;;1.33;;
24761;SDS011;12865;51.934;10.330;2022-12-29T14:55:55;4.68;;;1.10;;
24761;SDS011;12865;51.934;10.330;2022-12-29T14:58:24;3.95;;;1.30;;
24761;SDS011;12865;51.934;10.330;2022-12-29T15:00:54;2.72;;;1.40;;
24761;SDS011;12865;51.934;10.330;2022-12-29T15:03:21;2.97;;;1.13;;
24761;SDS011;12865;51.934;10.330;2022-12-29T15:05:50;4.17;;;1.27;;
24761;SDS011;12865;51.934;10.330;2022-12-29T15:08:20;4.25;;;1.25;;
24761;SDS011;12865;51.934;10.330;2022-12-29T15:10:52;3.00;;;1.02;;
24761;SDS011;12865;51.934;10.330;2022-12-29T15:13:32;2.63;;;0.85;;
24761;SDS011;12865;51.934;10.330;2022-12-29T15:15:59;4.90;;;1.20;;
24761;SDS011;12865;51.934;10.330;2022-12-29T15:18:25;5.20;;;1.10;;
24761;SDS011;12865;51.934;10.330;2022-12-29T15:20:57;3.93;;;1.30;;
24761;SDS011;12865;51.934;10.330;2022-12-29T15:23:24;3.30;;;1.10;;
24761;SDS011;12865;51.934;10.330;2022-12-29T15:28:21;4.60;;;1.50;;
24761;SDS011;12865;51.934;10.330;2022-12-29T15:31:09;4.55;;;1.63;;
24761;SDS011;12865;51.934;10.330;2022-12-29T15:33:38;3.88;;;1.65;;
24761;SDS011;12865;51.934;10.330;2022-12-29T15:36:05;6.65;;;1.60;;
24761;SDS011;12865;51.934;10.330;2022-12-29T15:38:39;4.65;;;1.48;;
24761;SDS011;12865;51.934;10.330;2022-12-29T15:41:06;3.40;;;1.45;;
24761;SDS011;12865;51.934;10.330;2022-12-29T15:43:53;3.15;;;1.13;;
24761;SDS011;12865;51.934;10.330;2022-12-29T15:46:30;4.72;;;1.30;;
24761;SDS011;12865;51.934;10.330;2022-12-29T15:48:56;2.90;;;1.40;;
24761;SDS011;12865;51.934;10.330;2022-12-29T15:51:28;4.43;;;1.20;;
24761;SDS011;12865;51.934;10.330;2022-12-29T15:53:56;3.88;;;1.42;;
24761;SDS011;12865;51.934;10.330;2022-12-29T15:56:22;4.80;;;1.40;;
24761;SDS011;12865;51.934;10.330;2022-12-29T15:58:49;5.25;;;1.50;;
24761;SDS011;12865;51.934;10.330;2022-12-29T16:01:17;2.35;;;1.10;;
24761;SDS011;12865;51.934;10.330;2022-12-29T16:03:51;2.22;;;0.93;;
24761;SDS011;12865;51.934;10.330;2022-12-29T16:06:27;4.90;;;1.10;;
24761;SDS011;12865;51.934;10.330;2022-12-29T16:09:06;2.70;;;1.10;;
24761;SDS011;12865;51.934;10.330;2022-12-29T16:11:40;7.15;;;1.70;;
24761;SDS011;12865;51.934;10.330;2022-12-29T16:14:17;2.80;;;1.30;;
24761;SDS011;12865;51.934;10.330;2022-12-29T16:16:45;3.42;;;1.40;;
24761;SDS011;12865;51.934;10.330;2022-12-29T16:19:13;3.03;;;1.10;;
24761;SDS011;12865;51.934;10.330;2022-12-29T16:21:43;1.70;;;0.93;;
24761;SDS011;12865;51.934;10.330;2022-12-29T16:24:14;2.72;;;1.00;;
24761;SDS011;12865;51.934;10.330;2022-12-29T16:27:06;2.30;;;1.30;;
24761;SDS011;12865;51.934;10.330;2022-12-29T16:29:31;4.53;;;1.02;;
24761;SDS011;12865;51.934;10.330;2022-12-29T16:31:58;4.00;;;0.90;;
24761;SDS011;12865;51.934;10.330;2022-12-29T16:39:55;2.88;;;1.00;;
24761;SDS011;12865;51.934;10.330;2022-12-29T16:42:44;4.72;;;0.98;;
24761;SDS011;12865;51.934;10.330;2022-12-29T16:50:36;4.13;;;1.10;;
24761;SDS011;12865;51.934;10.330;2022-12-29T16:53:05;2.17;;;1.10;;
24761;SDS011;12865;51.934;10.330;2022-12-29T16:55:45;2.60;;;0.88;;
24761;SDS011;12865;51.934;10.330;2022-12-29T16:58:21;3.28;;;1.10;;
24761;SDS011;12865;51.934;10.330;2022-12-29T17:00:48;1.42;;;0.90;;
24761;SDS011;12865;51.934;10.330;2022-12-29T17:03:16;2.95;;;1.10;;
24761;SDS011;12865;51.934;10.330;2022-12-29T17:05:42;3.15;;;1.10;;
24761;SDS011;12865;51.934;10.330;2022-12-29T17:08:17;4.03;;;1.10;;
24761;SDS011;12865;51.934;10.330;2022-12-29T17:10:51;4.18;;;1.13;;
24761;SDS011;12865;51.934;10.330;2022-12-29T17:13:37;3.05;;;0.80;;
24761;SDS011;12865;51.934;10.330;2022-12-29T17:16:03;4.13;;;1.00;;
24761;SDS011;12865;51.934;10.330;2022-12-29T17:18:31;2.60;;;1.00;;
24761;SDS011;12865;51.934;10.330;2022-12-29T17:20:57;3.35;;;0.93;;
24761;SDS011;12865;51.934;10.330;2022-12-29T17:23:22;3.72;;;0.90;;